sensor_id;sensor_type;location;lat;lon;timestamp;temperature;humidity
6018;DHT22;3037;51.068;13.780;2023-02-04T00:01:34;5.40;99.90
6018;DHT22;3037;51.068;13.780;2023-02-04T00:03:59;5.30;99.90
6018;DHT22;3037;51.068;13.780;2023-02-04T00:06:25;5.20;99.90
6018;DHT22;3037;51.068;13.780;2023-02-04T00:08:51;5.20;99.90
6018;DHT22;3037;51.068;13.780;2023-02-04T00:11:16;5.20;99.90
6018;DHT22;3037;51.068;13.780;2023-02-04T00:13:42;5.00;99.90
6018;DHT22;3037;51.068;13.780;2023-02-04T00:16:08;5.00;99.90
6018;DHT22;3037;51.068;13.780;2023-02-04T00:18:33;5.00;99.90
6018;DHT22;3037;51.068;13.780;2023-02-04T00:20:59;4.80;99.90
6018;DHT22;3037;51.068;13.780;2023-02-04T00:23:24;4.80;99.90
6018;DHT22;3037;51.068;13.780;2023-02-04T00:25:50;4.80;99.90
6018;DHT22;3037;51.068;13.780;2023-02-04T00:28:15;4.80;99.90
6018;DHT22;3037;51.068;13.780;2023-02-04T00:30:41;4.60;99.90
6018;DHT22;3037;51.068;13.780;2023-02-04T00:33:06;4.60;99.90
6018;DHT22;3037;51.068;13.780;2023-02-04T00:35:32;4.60;99.90
6018;DHT22;3037;51.068;13.780;2023-02-04T00:37:57;4.60;99.90
6018;DHT22;3037;51.068;13.780;2023-02-04T00:40:23;4.60;99.90
6018;DHT22;3037;51.068;13.780;2023-02-04T00:42:48;4.50;99.90
6018;DHT22;3037;51.068;13.780;2023-02-04T00:45:14;4.30;99.90
6018;DHT22;3037;51.068;13.780;2023-02-04T00:47:39;4.20;99.90
6018;DHT22;3037;51.068;13.780;2023-02-04T00:50:05;4.00;99.90
6018;DHT22;3037;51.068;13.780;2023-02-04T00:52:30;3.90;99.90
6018;DHT22;3037;51.068;13.780;2023-02-04T00:54:56;3.80;99.90
6018;DHT22;3037;51.068;13.780;2023-02-04T00:57:22;3.80;99.90
6018;DHT22;3037;51.068;13.780;2023-02-04T00:59:47;3.80;99.90
6018;DHT22;3037;51.068;13.780;2023-02-04T01:02:13;3.80;99.90
6018;DHT22;3037;51.068;13.780;2023-02-04T01:04:38;3.70;99.90
6018;DHT22;3037;51.068;13.780;2023-02-04T01:07:04;3.80;99.90
6018;DHT22;3037;51.068;13.780;2023-02-04T01:09:29;3.80;99.90
6018;DHT22;3037;51.068;13.780;2023-02-04T01:11:55;3.90;99.90
6018;DHT22;3037;51.068;13.780;2023-02-04T01:14:20;3.90;99.90
6018;DHT22;3037;51.068;13.780;2023-02-04T01:16:46;4.00;99.90
6018;DHT22;3037;51.068;13.780;2023-02-04T01:19:12;4.10;99.90
6018;DHT22;3037;51.068;13.780;2023-02-04T01:21:37;4.10;99.90
6018;DHT22;3037;51.068;13.780;2023-02-04T01:24:03;4.00;99.90
6018;DHT22;3037;51.068;13.780;2023-02-04T01:26:28;4.00;99.90
6018;DHT22;3037;51.068;13.780;2023-02-04T01:28:54;4.00;99.90
6018;DHT22;3037;51.068;13.780;2023-02-04T01:31:19;3.90;99.90
6018;DHT22;3037;51.068;13.780;2023-02-04T01:33:45;3.90;99.90
6018;DHT22;3037;51.068;13.780;2023-02-04T01:36:11;4.00;99.90
6018;DHT22;3037;51.068;13.780;2023-02-04T01:38:36;4.00;99.90
6018;DHT22;3037;51.068;13.780;2023-02-04T01:41:03;4.10;99.90
6018;DHT22;3037;51.068;13.780;2023-02-04T01:43:29;4.00;99.90
6018;DHT22;3037;51.068;13.780;2023-02-04T01:45:55;4.00;99.90
6018;DHT22;3037;51.068;13.780;2023-02-04T01:48:21;4.00;99.90
6018;DHT22;3037;51.068;13.780;2023-02-04T01:50:49;4.00;99.90
6018;DHT22;3037;51.068;13.780;2023-02-04T01:53:19;3.90;99.90
6018;DHT22;3037;51.068;13.780;2023-02-04T01:55:45;3.70;99.90
6018;DHT22;3037;51.068;13.780;2023-02-04T01:58:11;3.70;99.90
6018;DHT22;3037;51.068;13.780;2023-02-04T02:00:37;3.70;99.90
6018;DHT22;3037;51.068;13.780;2023-02-04T02:03:04;3.70;99.90
6018;DHT22;3037;51.068;13.780;2023-02-04T02:05:43;3.80;99.90
6018;DHT22;3037;51.068;13.780;2023-02-04T02:08:10;3.70;99.90
6018;DHT22;3037;51.068;13.780;2023-02-04T02:10:37;3.70;99.90
6018;DHT22;3037;51.068;13.780;2023-02-04T02:13:05;3.60;99.90
6018;DHT22;3037;51.068;13.780;2023-02-04T02:15:31;3.70;99.90
6018;DHT22;3037;51.068;13.780;2023-02-04T02:17:57;3.70;99.90
6018;DHT22;3037;51.068;13.780;2023-02-04T02:20:24;3.60;99.90
6018;DHT22;3037;51.068;13.780;2023-02-04T02:23:18;3.60;99.90
6018;DHT22;3037;51.068;13.780;2023-02-04T02:25:45;3.70;99.90
6018;DHT22;3037;51.068;13.780;2023-02-04T02:28:17;3.90;99.90
6018;DHT22;3037;51.068;13.780;2023-02-04T02:30:44;3.90;99.90
6018;DHT22;3037;51.068;13.780;2023-02-04T02:33:14;3.90;99.90
6018;DHT22;3037;51.068;13.780;2023-02-04T02:35:41;3.90;99.90
6018;DHT22;3037;51.068;13.780;2023-02-04T02:38:09;3.70;99.90
6018;DHT22;3037;51.068;13.780;2023-02-04T02:40:35;3.70;99.90
6018;DHT22;3037;51.068;13.780;2023-02-04T02:43:01;3.70;99.90
6018;DHT22;3037;51.068;13.780;2023-02-04T02:45:29;3.70;99.90
6018;DHT22;3037;51.068;13.780;2023-02-04T02:47:57;3.80;99.90
6018;DHT22;3037;51.068;13.780;2023-02-04T02:50:26;3.80;99.90
6018;DHT22;3037;51.068;13.780;2023-02-04T02:52:53;3.80;99.90
6018;DHT22;3037;51.068;13.780;2023-02-04T02:55:21;3.80;99.90
6018;DHT22;3037;51.068;13.780;2023-02-04T02:57:49;3.80;99.90
6018;DHT22;3037;51.068;13.780;2023-02-04T03:00:18;3.80;99.90
6018;DHT22;3037;51.068;13.780;2023-02-04T03:02:52;3.60;99.90
6018;DHT22;3037;51.068;13.780;2023-02-04T03:05:18;3.50;99.90
6018;DHT22;3037;51.068;13.780;2023-02-04T03:07:44;3.50;99.90
6018;DHT22;3037;51.068;13.780;2023-02-04T03:10:10;3.60;99.90
6018;DHT22;3037;51.068;13.780;2023-02-04T03:12:36;3.60;99.90
6018;DHT22;3037;51.068;13.780;2023-02-04T03:15:02;3.50;99.90
6018;DHT22;3037;51.068;13.780;2023-02-04T03:17:28;3.50;99.90
6018;DHT22;3037;51.068;13.780;2023-02-04T03:19:54;3.70;99.90
6018;DHT22;3037;51.068;13.780;2023-02-04T03:22:20;3.80;99.90
6018;DHT22;3037;51.068;13.780;2023-02-04T03:24:45;3.80;99.90
6018;DHT22;3037;51.068;13.780;2023-02-04T03:27:11;3.80;99.90
6018;DHT22;3037;51.068;13.780;2023-02-04T03:29:45;3.80;99.90
6018;DHT22;3037;51.068;13.780;2023-02-04T03:32:11;3.80;99.90
6018;DHT22;3037;51.068;13.780;2023-02-04T03:34:36;3.80;99.90
6018;DHT22;3037;51.068;13.780;2023-02-04T03:37:02;3.70;99.90
6018;DHT22;3037;51.068;13.780;2023-02-04T03:39:27;3.70;99.90
6018;DHT22;3037;51.068;13.780;2023-02-04T03:41:53;3.90;99.90
6018;DHT22;3037;51.068;13.780;2023-02-04T03:44:18;3.80;99.90
6018;DHT22;3037;51.068;13.780;2023-02-04T03:46:45;3.30;99.90
6018;DHT22;3037;51.068;13.780;2023-02-04T03:49:10;3.20;99.90
6018;DHT22;3037;51.068;13.780;2023-02-04T03:51:36;3.10;99.90
6018;DHT22;3037;51.068;13.780;2023-02-04T03:54:01;3.10;99.90
6018;DHT22;3037;51.068;13.780;2023-02-04T03:56:28;3.00;99.90
6018;DHT22;3037;51.068;13.780;2023-02-04T03:58:53;3.00;99.90
6018;DHT22;3037;51.068;13.780;2023-02-04T04:01:19;2.90;99.90
6018;DHT22;3037;51.068;13.780;2023-02-04T04:03:44;2.80;99.90
6018;DHT22;3037;51.068;13.780;2023-02-04T04:06:10;2.70;99.90
6018;DHT22;3037;51.068;13.780;2023-02-04T04:08:36;2.50;99.90
6018;DHT22;3037;51.068;13.780;2023-02-04T04:11:02;2.40;99.90
6018;DHT22;3037;51.068;13.780;2023-02-04T04:13:28;2.30;99.90
6018;DHT22;3037;51.068;13.780;2023-02-04T04:15:53;2.20;99.90
6018;DHT22;3037;51.068;13.780;2023-02-04T04:18:19;2.30;99.90
6018;DHT22;3037;51.068;13.780;2023-02-04T04:20:44;2.40;99.90
6018;DHT22;3037;51.068;13.780;2023-02-04T04:23:10;2.60;99.90
6018;DHT22;3037;51.068;13.780;2023-02-04T04:25:35;2.60;99.90
6018;DHT22;3037;51.068;13.780;2023-02-04T04:28:01;2.60;99.90
6018;DHT22;3037;51.068;13.780;2023-02-04T04:30:26;2.70;99.90
6018;DHT22;3037;51.068;13.780;2023-02-04T04:32:52;2.90;99.90
6018;DHT22;3037;51.068;13.780;2023-02-04T04:35:17;2.90;99.90
6018;DHT22;3037;51.068;13.780;2023-02-04T04:37:43;2.90;99.90
6018;DHT22;3037;51.068;13.780;2023-02-04T04:40:10;2.90;99.90
6018;DHT22;3037;51.068;13.780;2023-02-04T04:42:36;3.00;99.90
6018;DHT22;3037;51.068;13.780;2023-02-04T04:45:02;3.00;99.90
6018;DHT22;3037;51.068;13.780;2023-02-04T04:47:29;3.00;99.90
6018;DHT22;3037;51.068;13.780;2023-02-04T04:49:55;3.10;99.90
6018;DHT22;3037;51.068;13.780;2023-02-04T04:52:20;3.20;99.90
6018;DHT22;3037;51.068;13.780;2023-02-04T04:54:46;3.00;99.90
6018;DHT22;3037;51.068;13.780;2023-02-04T04:57:11;3.00;99.90
6018;DHT22;3037;51.068;13.780;2023-02-04T04:59:37;3.00;99.90
6018;DHT22;3037;51.068;13.780;2023-02-04T05:02:02;3.10;99.90
6018;DHT22;3037;51.068;13.780;2023-02-04T05:04:28;3.20;99.90
6018;DHT22;3037;51.068;13.780;2023-02-04T05:06:53;3.20;99.90
6018;DHT22;3037;51.068;13.780;2023-02-04T05:09:19;3.20;99.90
6018;DHT22;3037;51.068;13.780;2023-02-04T05:11:44;3.10;99.90
6018;DHT22;3037;51.068;13.780;2023-02-04T05:14:11;3.10;99.90
6018;DHT22;3037;51.068;13.780;2023-02-04T05:16:36;3.10;99.90
6018;DHT22;3037;51.068;13.780;2023-02-04T05:19:02;2.90;99.90
6018;DHT22;3037;51.068;13.780;2023-02-04T05:21:28;3.00;99.90
6018;DHT22;3037;51.068;13.780;2023-02-04T05:23:53;2.90;99.90
6018;DHT22;3037;51.068;13.780;2023-02-04T05:26:19;2.90;99.90
6018;DHT22;3037;51.068;13.780;2023-02-04T05:28:44;2.90;99.90
6018;DHT22;3037;51.068;13.780;2023-02-04T05:31:10;3.10;99.90
6018;DHT22;3037;51.068;13.780;2023-02-04T05:33:35;3.00;99.90
6018;DHT22;3037;51.068;13.780;2023-02-04T05:36:00;3.10;99.90
6018;DHT22;3037;51.068;13.780;2023-02-04T05:38:26;3.20;99.90
6018;DHT22;3037;51.068;13.780;2023-02-04T05:40:51;3.30;99.90
6018;DHT22;3037;51.068;13.780;2023-02-04T05:43:17;3.10;99.90
6018;DHT22;3037;51.068;13.780;2023-02-04T05:45:43;3.00;99.90
6018;DHT22;3037;51.068;13.780;2023-02-04T05:48:08;2.90;99.90
6018;DHT22;3037;51.068;13.780;2023-02-04T05:50:34;2.90;99.90
6018;DHT22;3037;51.068;13.780;2023-02-04T05:52:59;2.70;99.90
6018;DHT22;3037;51.068;13.780;2023-02-04T05:55:25;2.80;99.90
6018;DHT22;3037;51.068;13.780;2023-02-04T05:57:50;2.80;99.90
6018;DHT22;3037;51.068;13.780;2023-02-04T06:00:16;2.70;99.90
6018;DHT22;3037;51.068;13.780;2023-02-04T06:02:41;2.60;99.90
6018;DHT22;3037;51.068;13.780;2023-02-04T06:05:07;2.50;99.90
6018;DHT22;3037;51.068;13.780;2023-02-04T06:07:33;2.40;99.90
6018;DHT22;3037;51.068;13.780;2023-02-04T06:09:58;2.30;99.90
6018;DHT22;3037;51.068;13.780;2023-02-04T06:12:24;2.40;99.90
6018;DHT22;3037;51.068;13.780;2023-02-04T06:14:49;2.50;99.90
6018;DHT22;3037;51.068;13.780;2023-02-04T06:17:15;2.50;99.90
6018;DHT22;3037;51.068;13.780;2023-02-04T06:19:40;2.50;99.90
6018;DHT22;3037;51.068;13.780;2023-02-04T06:22:06;2.50;99.90
6018;DHT22;3037;51.068;13.780;2023-02-04T06:24:31;2.30;99.90
6018;DHT22;3037;51.068;13.780;2023-02-04T06:26:56;2.10;99.90
6018;DHT22;3037;51.068;13.780;2023-02-04T06:29:22;2.00;99.90
6018;DHT22;3037;51.068;13.780;2023-02-04T06:31:47;1.80;99.90
6018;DHT22;3037;51.068;13.780;2023-02-04T06:34:14;1.80;99.90
6018;DHT22;3037;51.068;13.780;2023-02-04T06:36:39;1.70;99.90
6018;DHT22;3037;51.068;13.780;2023-02-04T06:39:05;1.70;99.90
6018;DHT22;3037;51.068;13.780;2023-02-04T06:41:30;1.60;99.90
6018;DHT22;3037;51.068;13.780;2023-02-04T06:43:56;1.60;99.90
6018;DHT22;3037;51.068;13.780;2023-02-04T06:46:21;1.60;99.90
6018;DHT22;3037;51.068;13.780;2023-02-04T06:48:47;1.40;99.90
6018;DHT22;3037;51.068;13.780;2023-02-04T06:51:12;1.50;99.90
6018;DHT22;3037;51.068;13.780;2023-02-04T06:53:38;1.30;99.90
6018;DHT22;3037;51.068;13.780;2023-02-04T06:56:04;1.30;99.90
6018;DHT22;3037;51.068;13.780;2023-02-04T06:58:30;1.40;99.90
6018;DHT22;3037;51.068;13.780;2023-02-04T07:00:55;1.40;99.90
6018;DHT22;3037;51.068;13.780;2023-02-04T07:03:21;1.40;99.90
6018;DHT22;3037;51.068;13.780;2023-02-04T07:05:46;1.40;99.90
6018;DHT22;3037;51.068;13.780;2023-02-04T07:08:12;1.60;99.90
6018;DHT22;3037;51.068;13.780;2023-02-04T07:10:37;1.50;99.90
6018;DHT22;3037;51.068;13.780;2023-02-04T07:13:03;1.50;99.90
6018;DHT22;3037;51.068;13.780;2023-02-04T07:15:28;1.50;99.90
6018;DHT22;3037;51.068;13.780;2023-02-04T07:17:55;1.60;99.90
6018;DHT22;3037;51.068;13.780;2023-02-04T07:20:20;1.70;99.90
6018;DHT22;3037;51.068;13.780;2023-02-04T07:22:46;1.80;99.90
6018;DHT22;3037;51.068;13.780;2023-02-04T07:25:11;1.80;99.90
6018;DHT22;3037;51.068;13.780;2023-02-04T07:27:39;1.70;99.90
6018;DHT22;3037;51.068;13.780;2023-02-04T07:30:05;1.80;99.90
6018;DHT22;3037;51.068;13.780;2023-02-04T07:32:30;2.00;99.90
6018;DHT22;3037;51.068;13.780;2023-02-04T07:34:58;2.00;99.90
6018;DHT22;3037;51.068;13.780;2023-02-04T07:37:24;2.10;99.90
6018;DHT22;3037;51.068;13.780;2023-02-04T07:39:49;2.20;99.90
6018;DHT22;3037;51.068;13.780;2023-02-04T07:42:15;2.30;99.90
6018;DHT22;3037;51.068;13.780;2023-02-04T07:44:40;2.50;99.90
6018;DHT22;3037;51.068;13.780;2023-02-04T07:47:06;2.70;99.90
6018;DHT22;3037;51.068;13.780;2023-02-04T07:49:31;2.80;99.90
6018;DHT22;3037;51.068;13.780;2023-02-04T07:51:57;3.40;99.90
6018;DHT22;3037;51.068;13.780;2023-02-04T07:54:22;3.80;99.90
6018;DHT22;3037;51.068;13.780;2023-02-04T07:56:48;5.40;99.90
6018;DHT22;3037;51.068;13.780;2023-02-04T07:59:13;4.70;99.90
6018;DHT22;3037;51.068;13.780;2023-02-04T08:01:39;5.10;99.90
6018;DHT22;3037;51.068;13.780;2023-02-04T08:04:04;5.30;99.90
6018;DHT22;3037;51.068;13.780;2023-02-04T08:06:30;5.70;99.90
6018;DHT22;3037;51.068;13.780;2023-02-04T08:08:55;5.90;98.50
6018;DHT22;3037;51.068;13.780;2023-02-04T08:11:21;5.00;99.90
6018;DHT22;3037;51.068;13.780;2023-02-04T08:13:46;4.80;99.90
6018;DHT22;3037;51.068;13.780;2023-02-04T08:16:12;4.70;99.90
6018;DHT22;3037;51.068;13.780;2023-02-04T08:18:37;4.60;99.90
6018;DHT22;3037;51.068;13.780;2023-02-04T08:21:03;4.30;99.90
6018;DHT22;3037;51.068;13.780;2023-02-04T08:23:31;4.20;99.90
6018;DHT22;3037;51.068;13.780;2023-02-04T08:25:57;4.40;99.90
6018;DHT22;3037;51.068;13.780;2023-02-04T08:28:24;4.50;99.90
6018;DHT22;3037;51.068;13.780;2023-02-04T08:30:49;4.60;99.90
6018;DHT22;3037;51.068;13.780;2023-02-04T08:33:15;4.60;99.90
6018;DHT22;3037;51.068;13.780;2023-02-04T08:35:40;4.60;99.90
6018;DHT22;3037;51.068;13.780;2023-02-04T08:38:06;4.60;99.90
6018;DHT22;3037;51.068;13.780;2023-02-04T08:40:31;4.60;99.90
6018;DHT22;3037;51.068;13.780;2023-02-04T08:42:57;4.80;99.90
6018;DHT22;3037;51.068;13.780;2023-02-04T08:45:22;4.70;99.90
6018;DHT22;3037;51.068;13.780;2023-02-04T08:47:48;4.50;99.90
6018;DHT22;3037;51.068;13.780;2023-02-04T08:50:13;4.50;99.90
6018;DHT22;3037;51.068;13.780;2023-02-04T08:52:39;4.60;99.90
6018;DHT22;3037;51.068;13.780;2023-02-04T08:55:05;4.80;99.90
6018;DHT22;3037;51.068;13.780;2023-02-04T08:57:30;5.10;99.90
6018;DHT22;3037;51.068;13.780;2023-02-04T08:59:56;5.60;99.90
6018;DHT22;3037;51.068;13.780;2023-02-04T09:02:21;6.00;99.20
6018;DHT22;3037;51.068;13.780;2023-02-04T09:04:47;5.30;99.90
6018;DHT22;3037;51.068;13.780;2023-02-04T09:07:12;5.50;99.90
6018;DHT22;3037;51.068;13.780;2023-02-04T09:09:38;6.20;99.90
6018;DHT22;3037;51.068;13.780;2023-02-04T09:12:03;6.90;93.30
6018;DHT22;3037;51.068;13.780;2023-02-04T09:14:29;6.60;94.40
6018;DHT22;3037;51.068;13.780;2023-02-04T09:16:54;6.30;95.00
6018;DHT22;3037;51.068;13.780;2023-02-04T09:19:20;6.10;98.80
6018;DHT22;3037;51.068;13.780;2023-02-04T09:21:52;5.90;98.10
6018;DHT22;3037;51.068;13.780;2023-02-04T09:24:18;5.80;99.90
6018;DHT22;3037;51.068;13.780;2023-02-04T09:26:44;6.40;95.50
6018;DHT22;3037;51.068;13.780;2023-02-04T09:29:09;6.50;96.70
6018;DHT22;3037;51.068;13.780;2023-02-04T09:31:35;6.70;94.70
6018;DHT22;3037;51.068;13.780;2023-02-04T09:34:00;6.90;93.60
6018;DHT22;3037;51.068;13.780;2023-02-04T09:36:26;6.90;92.90
6018;DHT22;3037;51.068;13.780;2023-02-04T09:38:55;6.80;92.20
6018;DHT22;3037;51.068;13.780;2023-02-04T09:41:20;6.60;97.80
6018;DHT22;3037;51.068;13.780;2023-02-04T09:43:46;6.50;95.00
6018;DHT22;3037;51.068;13.780;2023-02-04T09:46:20;7.00;88.00
6018;DHT22;3037;51.068;13.780;2023-02-04T09:48:47;7.20;99.90
6018;DHT22;3037;51.068;13.780;2023-02-04T09:51:17;8.20;99.90
6018;DHT22;3037;51.068;13.780;2023-02-04T09:53:43;8.70;94.00
6018;DHT22;3037;51.068;13.780;2023-02-04T09:56:10;9.00;98.30
6018;DHT22;3037;51.068;13.780;2023-02-04T09:58:35;8.70;91.90
6018;DHT22;3037;51.068;13.780;2023-02-04T10:01:13;8.70;98.20
6018;DHT22;3037;51.068;13.780;2023-02-04T10:03:40;9.00;58.60
6018;DHT22;3037;51.068;13.780;2023-02-04T10:06:17;8.80;93.40
6018;DHT22;3037;51.068;13.780;2023-02-04T10:08:44;8.80;89.20
6018;DHT22;3037;51.068;13.780;2023-02-04T10:11:11;8.30;68.50
6018;DHT22;3037;51.068;13.780;2023-02-04T10:13:40;8.10;75.80
6018;DHT22;3037;51.068;13.780;2023-02-04T10:16:24;7.70;77.10
6018;DHT22;3037;51.068;13.780;2023-02-04T10:18:55;7.80;75.80
6018;DHT22;3037;51.068;13.780;2023-02-04T10:21:25;7.70;77.50
6018;DHT22;3037;51.068;13.780;2023-02-04T10:23:54;7.30;79.10
6018;DHT22;3037;51.068;13.780;2023-02-04T10:26:21;6.90;88.20
6018;DHT22;3037;51.068;13.780;2023-02-04T10:28:46;6.50;96.70
6018;DHT22;3037;51.068;13.780;2023-02-04T10:31:35;6.80;93.20
6018;DHT22;3037;51.068;13.780;2023-02-04T10:34:20;7.10;91.70
6018;DHT22;3037;51.068;13.780;2023-02-04T10:36:51;7.30;87.10
6018;DHT22;3037;51.068;13.780;2023-02-04T10:39:22;7.10;90.30
6018;DHT22;3037;51.068;13.780;2023-02-04T10:41:50;7.30;81.90
6018;DHT22;3037;51.068;13.780;2023-02-04T10:44:33;7.30;99.90
6018;DHT22;3037;51.068;13.780;2023-02-04T10:47:06;7.40;84.70
6018;DHT22;3037;51.068;13.780;2023-02-04T10:49:39;7.50;76.60
6018;DHT22;3037;51.068;13.780;2023-02-04T10:52:15;7.60;76.20
6018;DHT22;3037;51.068;13.780;2023-02-04T10:54:41;7.40;76.20
6018;DHT22;3037;51.068;13.780;2023-02-04T10:59:34;7.00;79.60
6018;DHT22;3037;51.068;13.780;2023-02-04T11:02:05;7.10;85.80
6018;DHT22;3037;51.068;13.780;2023-02-04T11:04:38;7.70;73.50
6018;DHT22;3037;51.068;13.780;2023-02-04T11:07:03;9.60;40.50
6018;DHT22;3037;51.068;13.780;2023-02-04T11:09:29;9.60;38.70
6018;DHT22;3037;51.068;13.780;2023-02-04T11:11:57;9.20;40.40
6018;DHT22;3037;51.068;13.780;2023-02-04T11:14:28;8.60;44.40
6018;DHT22;3037;51.068;13.780;2023-02-04T11:16:55;8.60;47.00
6018;DHT22;3037;51.068;13.780;2023-02-04T11:19:38;8.30;55.30
6018;DHT22;3037;51.068;13.780;2023-02-04T11:22:05;8.00;61.50
6018;DHT22;3037;51.068;13.780;2023-02-04T11:24:33;7.40;61.90
6018;DHT22;3037;51.068;13.780;2023-02-04T11:27:20;6.90;75.60
6018;DHT22;3037;51.068;13.780;2023-02-04T11:29:46;8.60;58.30
6018;DHT22;3037;51.068;13.780;2023-02-04T11:32:31;8.10;46.30
6018;DHT22;3037;51.068;13.780;2023-02-04T11:35:24;10.30;37.40
6018;DHT22;3037;51.068;13.780;2023-02-04T11:37:51;11.10;15.00
6018;DHT22;3037;51.068;13.780;2023-02-04T11:40:34;10.50;16.30
6018;DHT22;3037;51.068;13.780;2023-02-04T11:43:10;11.30;1.00
6018;DHT22;3037;51.068;13.780;2023-02-04T11:45:38;11.50;1.00
6018;DHT22;3037;51.068;13.780;2023-02-04T11:48:23;11.50;1.00
6018;DHT22;3037;51.068;13.780;2023-02-04T11:50:59;11.30;1.00
6018;DHT22;3037;51.068;13.780;2023-02-04T11:53:30;10.50;1.00
6018;DHT22;3037;51.068;13.780;2023-02-04T11:55:56;9.10;1.00
6018;DHT22;3037;51.068;13.780;2023-02-04T11:58:21;8.30;11.80
6018;DHT22;3037;51.068;13.780;2023-02-04T12:00:50;7.90;26.80
6018;DHT22;3037;51.068;13.780;2023-02-04T12:05:49;8.40;28.60
6018;DHT22;3037;51.068;13.780;2023-02-04T12:11:03;7.30;48.00
6018;DHT22;3037;51.068;13.780;2023-02-04T12:13:30;7.30;55.30
6018;DHT22;3037;51.068;13.780;2023-02-04T12:16:02;7.10;59.70
6018;DHT22;3037;51.068;13.780;2023-02-04T12:18:29;7.20;65.30
6018;DHT22;3037;51.068;13.780;2023-02-04T12:20:56;7.50;60.70
6018;DHT22;3037;51.068;13.780;2023-02-04T12:23:22;7.50;57.50
6018;DHT22;3037;51.068;13.780;2023-02-04T12:25:48;6.90;60.50
6018;DHT22;3037;51.068;13.780;2023-02-04T12:28:14;6.90;66.10
6018;DHT22;3037;51.068;13.780;2023-02-04T12:30:40;7.50;56.60
6018;DHT22;3037;51.068;13.780;2023-02-04T12:33:05;7.20;61.80
6018;DHT22;3037;51.068;13.780;2023-02-04T12:35:32;7.50;59.20
6018;DHT22;3037;51.068;13.780;2023-02-04T12:37:57;7.60;52.50
6018;DHT22;3037;51.068;13.780;2023-02-04T12:40:23;8.10;40.30
6018;DHT22;3037;51.068;13.780;2023-02-04T12:42:48;8.40;31.30
6018;DHT22;3037;51.068;13.780;2023-02-04T12:45:15;8.60;24.80
6018;DHT22;3037;51.068;13.780;2023-02-04T12:47:42;9.20;20.00
6018;DHT22;3037;51.068;13.780;2023-02-04T12:50:09;9.40;15.70
6018;DHT22;3037;51.068;13.780;2023-02-04T12:52:35;9.60;16.40
6018;DHT22;3037;51.068;13.780;2023-02-04T12:55:05;9.40;17.60
6018;DHT22;3037;51.068;13.780;2023-02-04T12:57:32;9.10;15.10
6018;DHT22;3037;51.068;13.780;2023-02-04T12:59:58;9.00;12.50
6018;DHT22;3037;51.068;13.780;2023-02-04T13:02:28;8.80;1.60
6018;DHT22;3037;51.068;13.780;2023-02-04T13:04:54;8.70;3.90
6018;DHT22;3037;51.068;13.780;2023-02-04T13:07:21;8.70;1.00
6018;DHT22;3037;51.068;13.780;2023-02-04T13:09:47;8.70;1.00
6018;DHT22;3037;51.068;13.780;2023-02-04T13:12:13;8.30;1.00
6018;DHT22;3037;51.068;13.780;2023-02-04T13:14:40;8.30;1.00
6018;DHT22;3037;51.068;13.780;2023-02-04T13:17:06;8.40;1.20
6018;DHT22;3037;51.068;13.780;2023-02-04T13:19:32;8.80;1.50
6018;DHT22;3037;51.068;13.780;2023-02-04T13:21:58;9.20;1.00
6018;DHT22;3037;51.068;13.780;2023-02-04T13:24:24;9.30;1.00
6018;DHT22;3037;51.068;13.780;2023-02-04T13:26:50;9.40;1.00
6018;DHT22;3037;51.068;13.780;2023-02-04T13:29:15;9.60;1.00
6018;DHT22;3037;51.068;13.780;2023-02-04T13:31:41;9.30;1.00
6018;DHT22;3037;51.068;13.780;2023-02-04T13:34:06;9.70;1.00
6018;DHT22;3037;51.068;13.780;2023-02-04T13:36:32;10.00;1.00
6018;DHT22;3037;51.068;13.780;2023-02-04T13:38:58;9.30;1.00
6018;DHT22;3037;51.068;13.780;2023-02-04T13:41:28;9.20;1.00
6018;DHT22;3037;51.068;13.780;2023-02-04T13:43:54;9.00;1.00
6018;DHT22;3037;51.068;13.780;2023-02-04T13:46:20;9.10;1.00
6018;DHT22;3037;51.068;13.780;2023-02-04T13:48:46;9.00;1.00
6018;DHT22;3037;51.068;13.780;2023-02-04T13:51:12;8.90;1.00
6018;DHT22;3037;51.068;13.780;2023-02-04T13:53:38;9.00;1.00
6018;DHT22;3037;51.068;13.780;2023-02-04T13:56:04;9.10;1.00
6018;DHT22;3037;51.068;13.780;2023-02-04T13:58:29;8.60;1.00
6018;DHT22;3037;51.068;13.780;2023-02-04T14:00:55;8.20;1.00
6018;DHT22;3037;51.068;13.780;2023-02-04T14:03:25;8.70;1.00
6018;DHT22;3037;51.068;13.780;2023-02-04T14:05:51;8.50;1.00
6018;DHT22;3037;51.068;13.780;2023-02-04T14:08:17;8.60;1.00
6018;DHT22;3037;51.068;13.780;2023-02-04T14:10:43;8.30;1.00
6018;DHT22;3037;51.068;13.780;2023-02-04T14:13:09;8.40;1.00
6018;DHT22;3037;51.068;13.780;2023-02-04T14:15:35;7.90;1.00
6018;DHT22;3037;51.068;13.780;2023-02-04T14:18:02;7.90;1.00
6018;DHT22;3037;51.068;13.780;2023-02-04T14:20:29;7.70;1.00
6018;DHT22;3037;51.068;13.780;2023-02-04T14:22:54;7.40;1.00
6018;DHT22;3037;51.068;13.780;2023-02-04T14:25:20;7.50;1.00
6018;DHT22;3037;51.068;13.780;2023-02-04T14:27:45;7.30;1.00
6018;DHT22;3037;51.068;13.780;2023-02-04T14:30:37;7.30;1.00
6018;DHT22;3037;51.068;13.780;2023-02-04T14:33:03;7.20;1.00
6018;DHT22;3037;51.068;13.780;2023-02-04T14:35:28;7.30;1.00
6018;DHT22;3037;51.068;13.780;2023-02-04T14:37:54;7.20;1.00
6018;DHT22;3037;51.068;13.780;2023-02-04T14:40:20;6.90;1.00
6018;DHT22;3037;51.068;13.780;2023-02-04T14:42:47;7.10;5.70
6018;DHT22;3037;51.068;13.780;2023-02-04T14:45:14;7.20;5.50
6018;DHT22;3037;51.068;13.780;2023-02-04T14:47:40;7.30;6.40
6018;DHT22;3037;51.068;13.780;2023-02-04T14:50:08;7.00;7.60
6018;DHT22;3037;51.068;13.780;2023-02-04T14:52:35;6.70;2.50
6018;DHT22;3037;51.068;13.780;2023-02-04T14:55:00;6.80;1.00
6018;DHT22;3037;51.068;13.780;2023-02-04T14:57:26;6.80;1.00
6018;DHT22;3037;51.068;13.780;2023-02-04T14:59:51;6.70;1.00
6018;DHT22;3037;51.068;13.780;2023-02-04T15:02:17;6.60;1.00
6018;DHT22;3037;51.068;13.780;2023-02-04T15:04:43;6.60;1.00
6018;DHT22;3037;51.068;13.780;2023-02-04T15:07:10;7.20;1.00
6018;DHT22;3037;51.068;13.780;2023-02-04T15:09:36;8.10;90.10
6018;DHT22;3037;51.068;13.780;2023-02-04T15:12:02;8.90;1.00
6018;DHT22;3037;51.068;13.780;2023-02-04T15:14:28;8.90;1.00
6018;DHT22;3037;51.068;13.780;2023-02-04T15:16:53;8.40;13.20
6018;DHT22;3037;51.068;13.780;2023-02-04T15:19:19;7.90;92.30
6018;DHT22;3037;51.068;13.780;2023-02-04T15:21:45;7.80;15.40
6018;DHT22;3037;51.068;13.780;2023-02-04T15:24:11;7.20;1.80
6018;DHT22;3037;51.068;13.780;2023-02-04T15:26:37;6.80;3.30
6018;DHT22;3037;51.068;13.780;2023-02-04T15:29:03;6.30;6.30
6018;DHT22;3037;51.068;13.780;2023-02-04T15:31:29;6.00;6.60
6018;DHT22;3037;51.068;13.780;2023-02-04T15:33:55;5.80;10.40
6018;DHT22;3037;51.068;13.780;2023-02-04T15:36:20;6.10;42.30
6018;DHT22;3037;51.068;13.780;2023-02-04T15:38:46;5.90;22.40
6018;DHT22;3037;51.068;13.780;2023-02-04T15:41:12;5.50;24.20
6018;DHT22;3037;51.068;13.780;2023-02-04T15:43:37;5.20;26.00
6018;DHT22;3037;51.068;13.780;2023-02-04T15:46:03;5.00;29.60
6018;DHT22;3037;51.068;13.780;2023-02-04T15:48:29;4.80;36.70
6018;DHT22;3037;51.068;13.780;2023-02-04T15:50:54;4.70;39.60
6018;DHT22;3037;51.068;13.780;2023-02-04T15:53:20;4.60;43.90
6018;DHT22;3037;51.068;13.780;2023-02-04T15:55:46;4.50;43.80
6018;DHT22;3037;51.068;13.780;2023-02-04T15:58:12;4.40;50.00
6018;DHT22;3037;51.068;13.780;2023-02-04T16:00:37;4.40;55.30
6018;DHT22;3037;51.068;13.780;2023-02-04T16:03:03;4.30;57.80
6018;DHT22;3037;51.068;13.780;2023-02-04T16:05:29;4.20;59.40
6018;DHT22;3037;51.068;13.780;2023-02-04T16:07:54;4.10;62.20
6018;DHT22;3037;51.068;13.780;2023-02-04T16:10:20;4.00;65.50